sensor_id;sensor_type;location;lat;lon;timestamp;P1;durP1;ratioP1;P2;durP2;ratioP2
15557;SDS011;7880;50.110;9.372;2023-09-19T00:02:39;3.6384615384615384;;;1.0;;
15557;SDS011;7880;50.110;9.372;2023-09-19T00:07:43;1.4923076923076926;;;1.0;;
15557;SDS011;7880;50.110;9.372;2023-09-19T00:12:47;1.3000000000000003;;;0.8692307692307696;;
15557;SDS011;7880;50.110;9.372;2023-09-19T00:17:55;2.7307692307692295;;;1.0;;
15557;SDS011;7880;50.110;9.372;2023-09-19T00:22:59;1.276923076923077;;;0.9000000000000002;;
15557;SDS011;7880;50.110;9.372;2023-09-19T00:27:59;2.292307692307692;;;1.3000000000000003;;
15557;SDS011;7880;50.110;9.372;2023-09-19T00:33:06;1.1307692307692305;;;0.9307692307692309;;
15557;SDS011;7880;50.110;9.372;2023-09-19T00:38:08;2.3999999999999995;;;1.0;;
15557;SDS011;7880;50.110;9.372;2023-09-19T00:43:18;2.423076923076924;;;1.1999999999999997;;
15557;SDS011;7880;50.110;9.372;2023-09-19T00:48:18;1.7692307692307692;;;0.9692307692307693;;
15557;SDS011;7880;50.110;9.372;2023-09-19T00:53:23;4.538461538461538;;;1.0999999999999999;;
15557;SDS011;7880;50.110;9.372;2023-09-19T00:58:33;3.6692307692307695;;;1.3000000000000003;;
15557;SDS011;7880;50.110;9.372;2023-09-19T01:03:44;3.6384615384615384;;;1.1999999999999997;;
15557;SDS011;7880;50.110;9.372;2023-09-19T01:08:45;3.469230769230769;;;1.3000000000000003;;
15557;SDS011;7880;50.110;9.372;2023-09-19T01:13:49;1.6307692307692305;;;1.3000000000000003;;
15557;SDS011;7880;50.110;9.372;2023-09-19T01:24:04;5.038461538461539;;;1.5;;
15557;SDS011;7880;50.110;9.372;2023-09-19T01:29:09;2.1999999999999997;;;1.6;;
15557;SDS011;7880;50.110;9.372;2023-09-19T01:34:07;1.5692307692307692;;;1.4;;
15557;SDS011;7880;50.110;9.372;2023-09-19T01:39:11;2.838461538461538;;;1.6692307692307695;;
15557;SDS011;7880;50.110;9.372;2023-09-19T01:44:17;4.700000000000001;;;1.6999999999999995;;
15557;SDS011;7880;50.110;9.372;2023-09-19T01:49:24;2.8692307692307684;;;1.6;;
15557;SDS011;7880;50.110;9.372;2023-09-19T01:54:30;2.669230769230769;;;1.6999999999999995;;
15557;SDS011;7880;50.110;9.372;2023-09-19T01:59:34;6.207692307692307;;;2.1000000000000005;;
15557;SDS011;7880;50.110;9.372;2023-09-19T02:04:36;3.1692307692307695;;;2.0;;
15557;SDS011;7880;50.110;9.372;2023-09-19T02:09:42;3.2692307692307705;;;2.6000000000000005;;
15557;SDS011;7880;50.110;9.372;2023-09-19T02:14:48;5.269230769230769;;;2.3000000000000003;;
15557;SDS011;7880;50.110;9.372;2023-09-19T02:19:55;4.6692307692307695;;;2.5;;
15557;SDS011;7880;50.110;9.372;2023-09-19T02:25:00;6.69230769230769;;;2.3999999999999995;;
15557;SDS011;7880;50.110;9.372;2023-09-19T02:30:04;2.530769230769231;;;2.330769230769231;;
15557;SDS011;7880;50.110;9.372;2023-09-19T02:35:11;4.353846153846154;;;2.1307692307692307;;
15557;SDS011;7880;50.110;9.372;2023-09-19T02:40:18;2.8692307692307684;;;2.1000000000000005;;
15557;SDS011;7880;50.110;9.372;2023-09-19T02:45:18;5.176923076923076;;;2.5;;
15557;SDS011;7880;50.110;9.372;2023-09-19T02:50:28;2.484615384615385;;;2.0615384615384613;;
15557;SDS011;7880;50.110;9.372;2023-09-19T02:55:32;2.569230769230769;;;2.0;;
15557;SDS011;7880;50.110;9.372;2023-09-19T03:00:37;7.623076923076923;;;3.0307692307692307;;
15557;SDS011;7880;50.110;9.372;2023-09-19T03:05:35;5.438461538461538;;;2.030769230769231;;
15557;SDS011;7880;50.110;9.372;2023-09-19T03:10:42;4.338461538461538;;;2.269230769230769;;
15557;SDS011;7880;50.110;9.372;2023-09-19T03:15:46;5.807692307692306;;;2.969230769230769;;
15557;SDS011;7880;50.110;9.372;2023-09-19T03:20:53;3.1384615384615384;;;2.169230769230769;;
15557;SDS011;7880;50.110;9.372;2023-09-19T03:26:06;3.6692307692307695;;;2.3000000000000003;;
15557;SDS011;7880;50.110;9.372;2023-09-19T03:31:03;4.369230769230769;;;2.8;;
15557;SDS011;7880;50.110;9.372;2023-09-19T03:36:07;2.5;;;2.230769230769231;;
15557;SDS011;7880;50.110;9.372;2023-09-19T03:41:14;3.030769230769231;;;1.8307692307692305;;
15557;SDS011;7880;50.110;9.372;2023-09-19T03:46:22;2.899999999999999;;;1.8999999999999997;;
15557;SDS011;7880;50.110;9.372;2023-09-19T03:51:35;3.1307692307692316;;;2.3000000000000003;;
15557;SDS011;7880;50.110;9.372;2023-09-19T03:56:35;5.807692307692306;;;2.169230769230769;;
15557;SDS011;7880;50.110;9.372;2023-09-19T04:01:41;3.4615384615384617;;;1.6307692307692305;;
15557;SDS011;7880;50.110;9.372;2023-09-19T04:06:49;2.2538461538461543;;;1.9307692307692308;;
15557;SDS011;7880;50.110;9.372;2023-09-19T04:11:02;4.946153846153846;;;2.0538461538461545;;
15557;SDS011;7880;50.110;9.372;2023-09-19T04:16:10;2.269230769230769;;;1.8000000000000005;;
15557;SDS011;7880;50.110;9.372;2023-09-19T04:21:12;4.292307692307692;;;2.030769230769231;;
15557;SDS011;7880;50.110;9.372;2023-09-19T04:26:18;2.3999999999999995;;;1.8999999999999997;;
15557;SDS011;7880;50.110;9.372;2023-09-19T04:31:22;2.3000000000000003;;;2.1000000000000005;;
15557;SDS011;7880;50.110;9.372;2023-09-19T04:36:24;4.2384615384615385;;;2.269230769230769;;
15557;SDS011;7880;50.110;9.372;2023-09-19T04:41:30;4.161538461538461;;;2.430769230769231;;
15557;SDS011;7880;50.110;9.372;2023-09-19T04:46:35;3.438461538461538;;;2.6000000000000005;;
15557;SDS011;7880;50.110;9.372;2023-09-19T04:51:40;5.807692307692308;;;3.100000000000001;;
15557;SDS011;7880;50.110;9.372;2023-09-19T04:56:55;6.876923076923076;;;2.8692307692307684;;
15557;SDS011;7880;50.110;9.372;2023-09-19T05:02:05;2.269230769230769;;;2.0692307692307694;;
15557;SDS011;7880;50.110;9.372;2023-09-19T05:07:10;3.06923076923077;;;1.8307692307692305;;
15557;SDS011;7880;50.110;9.372;2023-09-19T05:12:10;3.969230769230769;;;1.8999999999999997;;
15557;SDS011;7880;50.110;9.372;2023-09-19T05:17:27;4.953846153846153;;;2.430769230769231;;
15557;SDS011;7880;50.110;9.372;2023-09-19T05:22:21;2.369230769230769;;;2.1000000000000005;;
15557;SDS011;7880;50.110;9.372;2023-09-19T05:27:29;2.5;;;1.8999999999999997;;
15557;SDS011;7880;50.110;9.372;2023-09-19T05:32:28;3.353846153846154;;;1.8000000000000005;;
15557;SDS011;7880;50.110;9.372;2023-09-19T05:37:32;3.100000000000001;;;1.6307692307692305;;
15557;SDS011;7880;50.110;9.372;2023-09-19T05:42:36;5.9;;;1.8000000000000005;;
15557;SDS011;7880;50.110;9.372;2023-09-19T05:47:41;3.3615384615384603;;;1.5384615384615388;;
15557;SDS011;7880;50.110;9.372;2023-09-19T05:52:51;2.969230769230769;;;1.8000000000000005;;
15557;SDS011;7880;50.110;9.372;2023-09-19T05:57:51;6.307692307692306;;;1.969230769230769;;
15557;SDS011;7880;50.110;9.372;2023-09-19T06:02:59;2.030769230769231;;;1.8307692307692305;;
15557;SDS011;7880;50.110;9.372;2023-09-19T06:08:07;7.538461538461541;;;2.6000000000000005;;
15557;SDS011;7880;50.110;9.372;2023-09-19T06:13:09;2.7538461538461543;;;1.8999999999999997;;
15557;SDS011;7880;50.110;9.372;2023-09-19T06:18:12;4.2615384615384615;;;2.6000000000000005;;
15557;SDS011;7880;50.110;9.372;2023-09-19T06:23:17;2.9615384615384617;;;2.5;;
15557;SDS011;7880;50.110;9.372;2023-09-19T06:28:28;5.430769230769231;;;2.1000000000000005;;
15557;SDS011;7880;50.110;9.372;2023-09-19T06:33:44;4.6692307692307695;;;2.1000000000000005;;
15557;SDS011;7880;50.110;9.372;2023-09-19T06:38:30;7.476923076923078;;;1.969230769230769;;
15557;SDS011;7880;50.110;9.372;2023-09-19T06:43:37;6.299999999999999;;;2.169230769230769;;
15557;SDS011;7880;50.110;9.372;2023-09-19T06:48:44;3.938461538461538;;;2.369230769230769;;
15557;SDS011;7880;50.110;9.372;2023-09-19T06:53:49;2.8692307692307684;;;2.0;;
15557;SDS011;7880;50.110;9.372;2023-09-19T06:58:51;5.569230769230767;;;3.061538461538462;;
15557;SDS011;7880;50.110;9.372;2023-09-19T07:03:56;8.676923076923076;;;2.7692307692307705;;
15557;SDS011;7880;50.110;9.372;2023-09-19T07:09:01;4.138461538461539;;;2.3000000000000003;;
15557;SDS011;7880;50.110;9.372;2023-09-19T07:14:13;3.2692307692307705;;;2.5;;
15557;SDS011;7880;50.110;9.372;2023-09-19T07:19:09;5.06923076923077;;;2.899999999999999;;
15557;SDS011;7880;50.110;9.372;2023-09-19T07:24:13;5.915384615384617;;;2.830769230769231;;
15557;SDS011;7880;50.110;9.372;2023-09-19T07:29:23;4.869230769230769;;;2.899999999999999;;
15557;SDS011;7880;50.110;9.372;2023-09-19T07:34:26;3.5;;;2.630769230769231;;
15557;SDS011;7880;50.110;9.372;2023-09-19T07:39:28;6.907692307692309;;;2.669230769230769;;
15557;SDS011;7880;50.110;9.372;2023-09-19T07:44:34;6.669230769230769;;;2.7307692307692295;;
15557;SDS011;7880;50.110;9.372;2023-09-19T07:49:39;3.56923076923077;;;2.0;;
15557;SDS011;7880;50.110;9.372;2023-09-19T07:54:44;5.261538461538462;;;2.1999999999999997;;
15557;SDS011;7880;50.110;9.372;2023-09-19T07:59:45;4.799999999999999;;;1.7307692307692308;;
15557;SDS011;7880;50.110;9.372;2023-09-19T08:04:53;5.307692307692306;;;1.6;;
15557;SDS011;7880;50.110;9.372;2023-09-19T08:10:02;3.7461538461538453;;;1.4;;
15557;SDS011;7880;50.110;9.372;2023-09-19T08:15:06;2.7307692307692295;;;1.8999999999999997;;
15557;SDS011;7880;50.110;9.372;2023-09-19T08:20:08;9.569230769230769;;;2.0692307692307694;;
15557;SDS011;7880;50.110;9.372;2023-09-19T08:25:18;6.669230769230769;;;2.1000000000000005;;
15557;SDS011;7880;50.110;9.372;2023-09-19T08:30:21;3.5;;;1.6307692307692305;;
15557;SDS011;7880;50.110;9.372;2023-09-19T08:35:23;2.169230769230769;;;1.6;;
15557;SDS011;7880;50.110;9.372;2023-09-19T08:40:29;8.307692307692307;;;1.8692307692307695;;
15557;SDS011;7880;50.110;9.372;2023-09-19T08:45:33;6.13076923076923;;;1.5615384615384613;;
15557;SDS011;7880;50.110;9.372;2023-09-19T08:50:39;4.830769230769231;;;1.4307692307692308;;
15557;SDS011;7880;50.110;9.372;2023-09-19T08:55:41;4.438461538461538;;;1.8000000000000005;;
15557;SDS011;7880;50.110;9.372;2023-09-19T09:00:47;8.846153846153847;;;2.0;;
15557;SDS011;7880;50.110;9.372;2023-09-19T09:05:51;4.538461538461538;;;1.8000000000000005;;
15557;SDS011;7880;50.110;9.372;2023-09-19T09:10:58;8.03846153846154;;;1.5;;
15557;SDS011;7880;50.110;9.372;2023-09-19T09:15:16;3.861538461538461;;;1.4;;
15557;SDS011;7880;50.110;9.372;2023-09-19T09:21:00;6.907692307692309;;;1.7307692307692308;;
15557;SDS011;7880;50.110;9.372;2023-09-19T09:26:11;3.9230769230769242;;;1.6999999999999995;;
15557;SDS011;7880;50.110;9.372;2023-09-19T09:31:22;7.176923076923078;;;2.938461538461538;;
15557;SDS011;7880;50.110;9.372;2023-09-19T09:36:33;4.6692307692307695;;;1.4;;
15557;SDS011;7880;50.110;9.372;2023-09-19T09:41:35;3.6692307692307695;;;1.5;;
15557;SDS011;7880;50.110;9.372;2023-09-19T09:47:40;2.93076923076923;;;1.6;;
15557;SDS011;7880;50.110;9.372;2023-09-19T09:52:24;3.2692307692307705;;;1.3000000000000003;;
15557;SDS011;7880;50.110;9.372;2023-09-19T09:57:26;4.5;;;1.469230769230769;;
15557;SDS011;7880;50.110;9.372;2023-09-19T10:02:29;2.430769230769231;;;1.4;;
15557;SDS011;7880;50.110;9.372;2023-09-19T10:07:32;4.269230769230769;;;1.3000000000000003;;
15557;SDS011;7880;50.110;9.372;2023-09-19T10:12:38;5.1692307692307695;;;1.1307692307692305;;
15557;SDS011;7880;50.110;9.372;2023-09-19T10:17:43;3.600000000000001;;;1.330769230769231;;
15557;SDS011;7880;50.110;9.372;2023-09-19T10:22:57;5.3076923076923075;;;1.1307692307692305;;
15557;SDS011;7880;50.110;9.372;2023-09-19T10:27:54;5.06923076923077;;;1.4;;
15557;SDS011;7880;50.110;9.372;2023-09-19T10:33:00;4.96923076923077;;;1.4307692307692308;;
15557;SDS011;7880;50.110;9.372;2023-09-19T10:38:01;7.230769230769231;;;1.1999999999999997;;
15557;SDS011;7880;50.110;9.372;2023-09-19T10:43:15;6.707692307692307;;;1.4;;
15557;SDS011;7880;50.110;9.372;2023-09-19T10:48:10;3.738461538461539;;;1.4;;
15557;SDS011;7880;50.110;9.372;2023-09-19T10:53:15;3.738461538461539;;;1.6692307692307695;;
15557;SDS011;7880;50.110;9.372;2023-09-19T10:58:26;2.1999999999999997;;;1.4307692307692308;;
15557;SDS011;7880;50.110;9.372;2023-09-19T11:03:30;3.2692307692307705;;;1.5;;
15557;SDS011;7880;50.110;9.372;2023-09-19T11:08:50;5.369230769230768;;;1.5;;
15557;SDS011;7880;50.110;9.372;2023-09-19T11:13:41;4.8999999999999995;;;1.330769230769231;;
15557;SDS011;7880;50.110;9.372;2023-09-19T11:18:56;3.953846153846153;;;1.5;;
15557;SDS011;7880;50.110;9.372;2023-09-19T11:23:43;2.8692307692307684;;;1.3000000000000003;;
15557;SDS011;7880;50.110;9.372;2023-09-19T11:29:26;4.0307692307692315;;;1.1999999999999997;;
15557;SDS011;7880;50.110;9.372;2023-09-19T11:34:50;5.453846153846153;;;1.5;;
15557;SDS011;7880;50.110;9.372;2023-09-19T11:39:30;3.06923076923077;;;1.4307692307692308;;
15557;SDS011;7880;50.110;9.372;2023-09-19T11:44:38;5.130769230769232;;;2.1000000000000005;;
15557;SDS011;7880;50.110;9.372;2023-09-19T11:49:40;4.538461538461538;;;1.5692307692307692;;
15557;SDS011;7880;50.110;9.372;2023-09-19T11:54:42;4.0;;;1.6;;
15557;SDS011;7880;50.110;9.372;2023-09-19T11:59:48;4.869230769230769;;;1.8999999999999997;;
15557;SDS011;7880;50.110;9.372;2023-09-19T12:04:53;4.738461538461538;;;1.5;;
15557;SDS011;7880;50.110;9.372;2023-09-19T12:10:02;6.707692307692307;;;1.6;;
15557;SDS011;7880;50.110;9.372;2023-09-19T12:14:59;7.792307692307691;;;1.7461538461538457;;
15557;SDS011;7880;50.110;9.372;2023-09-19T12:20:11;7.799999999999998;;;1.4307692307692308;;
15557;SDS011;7880;50.110;9.372;2023-09-19T12:25:11;6.353846153846155;;;1.7307692307692308;;
15557;SDS011;7880;50.110;9.372;2023-09-19T12:30:17;3.4615384615384617;;;1.5;;
15557;SDS011;7880;50.110;9.372;2023-09-19T12:35:26;4.06923076923077;;;1.5;;
15557;SDS011;7880;50.110;9.372;2023-09-19T12:40:27;3.3307692307692305;;;1.530769230769231;;
15557;SDS011;7880;50.110;9.372;2023-09-19T12:45:29;5.907692307692309;;;1.6;;
15557;SDS011;7880;50.110;9.372;2023-09-19T12:50:33;3.2230769230769236;;;1.0999999999999999;;
15557;SDS011;7880;50.110;9.372;2023-09-19T12:55:38;3.100000000000001;;;1.4307692307692308;;
15557;SDS011;7880;50.110;9.372;2023-09-19T13:00:43;4.938461538461538;;;1.6;;
15557;SDS011;7880;50.110;9.372;2023-09-19T13:05:48;4.130769230769232;;;1.6;;
15557;SDS011;7880;50.110;9.372;2023-09-19T13:11:02;5.415384615384615;;;1.6999999999999995;;
15557;SDS011;7880;50.110;9.372;2023-09-19T13:15:57;4.6000000000000005;;;1.3000000000000003;;
15557;SDS011;7880;50.110;9.372;2023-09-19T13:21:09;4.353846153846155;;;1.4692307692307693;;
15557;SDS011;7880;50.110;9.372;2023-09-19T13:26:06;3.0846153846153843;;;1.4307692307692308;;
15557;SDS011;7880;50.110;9.372;2023-09-19T13:31:11;2.392307692307693;;;1.6;;
15557;SDS011;7880;50.110;9.372;2023-09-19T13:36:15;10.276923076923076;;;2.1999999999999997;;
15557;SDS011;7880;50.110;9.372;2023-09-19T13:41:24;7.576923076923077;;;1.969230769230769;;
15557;SDS011;7880;50.110;9.372;2023-09-19T13:46:26;5.976923076923078;;;1.5692307692307692;;
15557;SDS011;7880;50.110;9.372;2023-09-19T13:51:30;5.676923076923076;;;1.1999999999999997;;
15557;SDS011;7880;50.110;9.372;2023-09-19T13:56:33;3.2999999999999994;;;1.3000000000000003;;
15557;SDS011;7880;50.110;9.372;2023-09-19T14:01:36;3.5846153846153843;;;1.0307692307692307;;
15557;SDS011;7880;50.110;9.372;2023-09-19T14:06:43;5.153846153846154;;;1.5;;
15557;SDS011;7880;50.110;9.372;2023-09-19T14:11:52;3.938461538461538;;;1.4;;
15557;SDS011;7880;50.110;9.372;2023-09-19T14:16:52;4.223076923076923;;;1.530769230769231;;
15557;SDS011;7880;50.110;9.372;2023-09-19T14:21:25;5.176923076923076;;;1.5;;
15557;SDS011;7880;50.110;9.372;2023-09-19T14:26:31;5.1692307692307695;;;1.6999999999999995;;
15557;SDS011;7880;50.110;9.372;2023-09-19T14:31:36;2.969230769230769;;;1.3000000000000003;;
15557;SDS011;7880;50.110;9.372;2023-09-19T14:36:39;3.2153846153846164;;;1.1307692307692305;;
15557;SDS011;7880;50.110;9.372;2023-09-19T14:41:44;3.030769230769231;;;1.1999999999999997;;
15557;SDS011;7880;50.110;9.372;2023-09-19T14:46:48;2.5384615384615383;;;1.169230769230769;;
15557;SDS011;7880;50.110;9.372;2023-09-19T14:51:53;2.661538461538462;;;1.4;;
15557;SDS011;7880;50.110;9.372;2023-09-19T14:57:04;6.130769230769232;;;1.4;;
15557;SDS011;7880;50.110;9.372;2023-09-19T15:02:01;3.2692307692307705;;;1.330769230769231;;
15557;SDS011;7880;50.110;9.372;2023-09-19T15:07:06;3.399999999999999;;;1.1999999999999997;;
15557;SDS011;7880;50.110;9.372;2023-09-19T15:12:14;3.7692307692307705;;;1.6;;
15557;SDS011;7880;50.110;9.372;2023-09-19T15:17:18;5.238461538461538;;;1.1999999999999997;;
15557;SDS011;7880;50.110;9.372;2023-09-19T15:22:22;1.3000000000000003;;;0.7;;
15557;SDS011;7880;50.110;9.372;2023-09-19T15:27:33;4.407692307692309;;;2.0692307692307694;;
15557;SDS011;7880;50.110;9.372;2023-09-19T15:32:32;4.507692307692308;;;1.169230769230769;;
15557;SDS011;7880;50.110;9.372;2023-09-19T15:37:37;2.169230769230769;;;1.1307692307692305;;
15557;SDS011;7880;50.110;9.372;2023-09-19T15:42:44;1.5;;;0.9000000000000002;;
15557;SDS011;7880;50.110;9.372;2023-09-19T15:47:47;2.1999999999999997;;;1.330769230769231;;
15557;SDS011;7880;50.110;9.372;2023-09-19T15:52:52;3.5384615384615383;;;1.0999999999999999;;
15557;SDS011;7880;50.110;9.372;2023-09-19T15:57:57;3.838461538461539;;;1.3692307692307695;;
15557;SDS011;7880;50.110;9.372;2023-09-19T16:03:01;4.338461538461538;;;1.3000000000000003;;
15557;SDS011;7880;50.110;9.372;2023-09-19T16:08:03;3.476923076923076;;;1.0384615384615385;;
15557;SDS011;7880;50.110;9.372;2023-09-19T16:13:08;7.746153846153847;;;1.5692307692307692;;
15557;SDS011;7880;50.110;9.372;2023-09-19T16:18:12;3.938461538461538;;;1.2692307692307692;;
15557;SDS011;7880;50.110;9.372;2023-09-19T16:23:16;1.3692307692307695;;;0.9000000000000002;;
15557;SDS011;7880;50.110;9.372;2023-09-19T16:28:20;2.969230769230769;;;1.169230769230769;;
15557;SDS011;7880;50.110;9.372;2023-09-19T16:33:23;3.469230769230769;;;1.0999999999999999;;
15557;SDS011;7880;50.110;9.372;2023-09-19T16:38:29;3.738461538461539;;;0.9000000000000002;;
15557;SDS011;7880;50.110;9.372;2023-09-19T16:43:33;1.5692307692307692;;;1.0;;
15557;SDS011;7880;50.110;9.372;2023-09-19T16:48:37;1.8846153846153846;;;0.9307692307692309;;
15557;SDS011;7880;50.110;9.372;2023-09-19T16:53:42;3.2;;;0.8461538461538461;;
15557;SDS011;7880;50.110;9.372;2023-09-19T16:58:49;1.8692307692307695;;;1.0;;
15557;SDS011;7880;50.110;9.372;2023-09-19T17:03:57;3.6384615384615384;;;1.169230769230769;;
15557;SDS011;7880;50.110;9.372;2023-09-19T17:08:59;2.338461538461538;;;1.1999999999999997;;
15557;SDS011;7880;50.110;9.372;2023-09-19T17:14:01;2.6000000000000005;;;0.8307692307692307;;
15557;SDS011;7880;50.110;9.372;2023-09-19T17:19:09;4.338461538461538;;;1.5;;
15557;SDS011;7880;50.110;9.372;2023-09-19T17:24:13;2.4384615384615387;;;1.0999999999999999;;
15557;SDS011;7880;50.110;9.372;2023-09-19T17:29:22;2.1000000000000005;;;1.6;;
15557;SDS011;7880;50.110;9.372;2023-09-19T17:34:20;1.3000000000000003;;;1.0;;
15557;SDS011;7880;50.110;9.372;2023-09-19T17:39:24;4.130769230769232;;;1.330769230769231;;
15557;SDS011;7880;50.110;9.372;2023-09-19T17:44:34;1.5;;;1.0692307692307692;;
15557;SDS011;7880;50.110;9.372;2023-09-19T17:49:31;6.038461538461541;;;2.969230769230769;;
15557;SDS011;7880;50.110;9.372;2023-09-19T17:54:35;3.1153846153846154;;;1.0;;
15557;SDS011;7880;50.110;9.372;2023-09-19T17:59:39;1.8000000000000005;;;0.8;;
15557;SDS011;7880;50.110;9.372;2023-09-19T18:04:47;1.8000000000000005;;;0.9000000000000002;;
15557;SDS011;7880;50.110;9.372;2023-09-19T18:09:51;3.0461538461538464;;;0.9461538461538463;;
15557;SDS011;7880;50.110;9.372;2023-09-19T18:14:56;1.7692307692307692;;;0.8;;
15557;SDS011;7880;50.110;9.372;2023-09-19T18:19:59;1.969230769230769;;;1.0;;
15557;SDS011;7880;50.110;9.372;2023-09-19T18:25:08;2.7;;;1.1999999999999997;;
15557;SDS011;7880;50.110;9.372;2023-09-19T18:30:10;2.469230769230769;;;0.8;;
15557;SDS011;7880;50.110;9.372;2023-09-19T18:35:15;2.969230769230769;;;0.8307692307692307;;
15557;SDS011;7880;50.110;9.372;2023-09-19T18:40:18;2.0692307692307694;;;0.9000000000000002;;
15557;SDS011;7880;50.110;9.372;2023-09-19T18:45:22;2.530769230769231;;;1.0615384615384613;;
15557;SDS011;7880;50.110;9.372;2023-09-19T18:50:27;2.369230769230769;;;0.9307692307692309;;
15557;SDS011;7880;50.110;9.372;2023-09-19T18:55:33;2.8615384615384616;;;1.6999999999999995;;
15557;SDS011;7880;50.110;9.372;2023-09-19T19:00:34;1.7307692307692308;;;1.0999999999999999;;
15557;SDS011;7880;50.110;9.372;2023-09-19T19:05:39;4.269230769230769;;;0.9000000000000002;;
15557;SDS011;7880;50.110;9.372;2023-09-19T19:10:42;1.7692307692307692;;;0.8;;
15557;SDS011;7880;50.110;9.372;2023-09-19T19:15:50;3.469230769230769;;;1.0692307692307692;;
15557;SDS011;7880;50.110;9.372;2023-09-19T19:20:56;1.0692307692307692;;;0.8;;
15557;SDS011;7880;50.110;9.372;2023-09-19T19:25:37;6.253846153846153;;;1.5;;
15557;SDS011;7880;50.110;9.372;2023-09-19T19:30:43;2.938461538461538;;;1.0692307692307692;;
15557;SDS011;7880;50.110;9.372;2023-09-19T19:35:45;5.0076923076923086;;;0.9000000000000002;;
15557;SDS011;7880;50.110;9.372;2023-09-19T19:40:56;3.738461538461539;;;0.9000000000000002;;
15557;SDS011;7880;50.110;9.372;2023-09-19T19:45:57;3.469230769230769;;;0.9000000000000002;;
15557;SDS011;7880;50.110;9.372;2023-09-19T19:51:03;2.5;;;0.9000000000000002;;
15557;SDS011;7880;50.110;9.372;2023-09-19T19:56:06;1.1923076923076918;;;0.7307692307692311;;
15557;SDS011;7880;50.110;9.372;2023-09-19T20:01:10;2.5307692307692307;;;0.8;;
15557;SDS011;7880;50.110;9.372;2023-09-19T20:06:14;1.892307692307693;;;1.0;;
15557;SDS011;7880;50.110;9.372;2023-09-19T20:11:19;1.4307692307692308;;;0.9000000000000002;;
15557;SDS011;7880;50.110;9.372;2023-09-19T20:16:24;3.369230769230768;;;1.0;;
15557;SDS011;7880;50.110;9.372;2023-09-19T20:21:29;1.6307692307692305;;;0.7307692307692311;;
15557;SDS011;7880;50.110;9.372;2023-09-19T20:26:33;1.8692307692307695;;;0.9000000000000002;;
15557;SDS011;7880;50.110;9.372;2023-09-19T20:31:37;2.269230769230769;;;1.1999999999999997;;
15557;SDS011;7880;50.110;9.372;2023-09-19T20:36:40;1.8692307692307695;;;0.8;;
15557;SDS011;7880;50.110;9.372;2023-09-19T20:41:46;1.7692307692307692;;;0.9000000000000002;;
15557;SDS011;7880;50.110;9.372;2023-09-19T20:46:53;1.6;;;1.1999999999999997;;
15557;SDS011;7880;50.110;9.372;2023-09-19T20:51:54;2.969230769230769;;;1.0;;
15557;SDS011;7880;50.110;9.372;2023-09-19T20:56:58;3.938461538461538;;;1.0;;
15557;SDS011;7880;50.110;9.372;2023-09-19T21:02:02;2.7692307692307705;;;0.8;;
15557;SDS011;7880;50.110;9.372;2023-09-19T21:07:11;2.969230769230769;;;1.0;;
15557;SDS011;7880;50.110;9.372;2023-09-19T21:12:10;4.907692307692309;;;1.4;;
15557;SDS011;7880;50.110;9.372;2023-09-19T21:17:19;2.5384615384615383;;;0.9692307692307693;;
15557;SDS011;7880;50.110;9.372;2023-09-19T21:22:19;2.0307692307692307;;;0.9000000000000002;;
15557;SDS011;7880;50.110;9.372;2023-09-19T21:27:22;4.6692307692307695;;;0.9307692307692309;;
15557;SDS011;7880;50.110;9.372;2023-09-19T21:32:26;2.6384615384615384;;;0.9692307692307693;;
15557;SDS011;7880;50.110;9.372;2023-09-19T21:37:31;1.9307692307692308;;;1.0307692307692307;;
15557;SDS011;7880;50.110;9.372;2023-09-19T21:42:37;0.8;;;0.7;;
15557;SDS011;7880;50.110;9.372;2023-09-19T21:47:43;1.2692307692307692;;;1.0;;
15557;SDS011;7880;50.110;9.372;2023-09-19T21:52:44;2.469230769230769;;;0.9000000000000002;;
15557;SDS011;7880;50.110;9.372;2023-09-19T21:57:49;3.3307692307692305;;;0.9000000000000002;;
15557;SDS011;7880;50.110;9.372;2023-09-19T22:02:54;1.8692307692307695;;;0.8;;
15557;SDS011;7880;50.110;9.372;2023-09-19T22:07:56;5.207692307692308;;;1.1999999999999997;;
15557;SDS011;7880;50.110;9.372;2023-09-19T22:13:00;1.0307692307692307;;;0.9307692307692309;;
15557;SDS011;7880;50.110;9.372;2023-09-19T22:18:08;2.2769230769230764;;;0.9307692307692309;;
15557;SDS011;7880;50.110;9.372;2023-09-19T22:23:12;1.0615384615384613;;;0.9000000000000002;;
15557;SDS011;7880;50.110;9.372;2023-09-19T22:28:17;2.0384615384615383;;;0.7;;
15557;SDS011;7880;50.110;9.372;2023-09-19T22:33:22;3.261538461538461;;;1.2307692307692308;;
15557;SDS011;7880;50.110;9.372;2023-09-19T22:38:24;2.7;;;1.0999999999999999;;
15557;SDS011;7880;50.110;9.372;2023-09-19T22:43:32;3.0384615384615383;;;1.1999999999999997;;
15557;SDS011;7880;50.110;9.372;2023-09-19T22:48:32;1.9307692307692308;;;0.7692307692307689;;
15557;SDS011;7880;50.110;9.372;2023-09-19T22:53:44;2.938461538461538;;;0.9000000000000002;;
15557;SDS011;7880;50.110;9.372;2023-09-19T22:58:46;2.0692307692307694;;;0.8307692307692307;;
15557;SDS011;7880;50.110;9.372;2023-09-19T23:03:52;3.807692307692309;;;1.2538461538461536;;
15557;SDS011;7880;50.110;9.372;2023-09-19T23:09:16;3.023076923076923;;;1.0;;
15557;SDS011;7880;50.110;9.372;2023-09-19T23:14:19;1.1307692307692305;;;0.9000000000000002;;